sensor_id;sensor_type;location;lat;lon;timestamp;P1;durP1;ratioP1;P2;durP2;ratioP2
77880;SDS011;67077;50.298;18.996;2023-04-26T00:00:05;12.00;;;5.40;;
77880;SDS011;67077;50.298;18.996;2023-04-26T00:03:11;13.90;;;4.50;;
77880;SDS011;67077;50.298;18.996;2023-04-26T00:05:40;10.30;;;4.20;;
77880;SDS011;67077;50.298;18.996;2023-04-26T00:08:08;10.20;;;4.30;;
77880;SDS011;67077;50.298;18.996;2023-04-26T00:10:36;12.40;;;4.60;;
77880;SDS011;67077;50.298;18.996;2023-04-26T00:13:07;11.30;;;4.40;;
77880;SDS011;67077;50.298;18.996;2023-04-26T00:15:35;15.20;;;4.60;;
77880;SDS011;67077;50.298;18.996;2023-04-26T00:18:05;17.40;;;5.00;;
77880;SDS011;67077;50.298;18.996;2023-04-26T00:20:33;16.20;;;5.40;;
77880;SDS011;67077;50.298;18.996;2023-04-26T00:23:01;12.50;;;3.90;;
77880;SDS011;67077;50.298;18.996;2023-04-26T00:25:29;12.50;;;4.70;;
77880;SDS011;67077;50.298;18.996;2023-04-26T00:27:57;15.40;;;5.40;;
77880;SDS011;67077;50.298;18.996;2023-04-26T00:30:25;12.40;;;4.80;;
77880;SDS011;67077;50.298;18.996;2023-04-26T00:32:54;14.50;;;4.80;;
77880;SDS011;67077;50.298;18.996;2023-04-26T00:35:22;9.30;;;4.50;;
77880;SDS011;67077;50.298;18.996;2023-04-26T07:28:07;11.10;;;4.70;;
77880;SDS011;67077;50.298;18.996;2023-04-26T07:31:01;14.60;;;6.00;;
77880;SDS011;67077;50.298;18.996;2023-04-26T07:33:38;16.30;;;5.70;;
77880;SDS011;67077;50.298;18.996;2023-04-26T07:36:09;14.50;;;5.20;;
77880;SDS011;67077;50.298;18.996;2023-04-26T07:38:39;12.10;;;4.30;;
77880;SDS011;67077;50.298;18.996;2023-04-26T07:41:17;13.40;;;5.80;;
77880;SDS011;67077;50.298;18.996;2023-04-26T07:43:45;8.60;;;4.30;;
77880;SDS011;67077;50.298;18.996;2023-04-26T07:46:28;13.00;;;3.80;;
77880;SDS011;67077;50.298;18.996;2023-04-26T07:51:44;10.40;;;4.70;;
77880;SDS011;67077;50.298;18.996;2023-04-26T07:54:13;11.90;;;4.30;;
77880;SDS011;67077;50.298;18.996;2023-04-26T07:56:47;10.50;;;3.60;;
77880;SDS011;67077;50.298;18.996;2023-04-26T07:59:16;12.00;;;2.70;;
77880;SDS011;67077;50.298;18.996;2023-04-26T08:01:47;8.00;;;3.30;;
77880;SDS011;67077;50.298;18.996;2023-04-26T08:04:30;9.50;;;3.40;;
77880;SDS011;67077;50.298;18.996;2023-04-26T08:07:26;11.10;;;3.50;;
77880;SDS011;67077;50.298;18.996;2023-04-26T08:11:30;9.10;;;4.10;;
77880;SDS011;67077;50.298;18.996;2023-04-26T08:14:09;9.80;;;3.80;;
77880;SDS011;67077;50.298;18.996;2023-04-26T08:17:02;11.10;;;3.90;;
77880;SDS011;67077;50.298;18.996;2023-04-26T08:19:47;10.00;;;4.30;;
77880;SDS011;67077;50.298;18.996;2023-04-26T08:22:21;13.00;;;3.60;;
77880;SDS011;67077;50.298;18.996;2023-04-26T08:24:56;6.50;;;2.60;;
77880;SDS011;67077;50.298;18.996;2023-04-26T08:27:27;10.50;;;3.30;;
77880;SDS011;67077;50.298;18.996;2023-04-26T08:30:00;11.30;;;4.00;;
77880;SDS011;67077;50.298;18.996;2023-04-26T08:32:32;10.00;;;3.70;;
77880;SDS011;67077;50.298;18.996;2023-04-26T08:35:11;9.50;;;3.20;;
77880;SDS011;67077;50.298;18.996;2023-04-26T10:07:59;4.50;;;1.90;;
77880;SDS011;67077;50.298;18.996;2023-04-26T10:10:34;5.10;;;2.20;;
77880;SDS011;67077;50.298;18.996;2023-04-26T10:13:04;5.50;;;2.20;;
77880;SDS011;67077;50.298;18.996;2023-04-26T10:21:26;4.30;;;2.00;;
77880;SDS011;67077;50.298;18.996;2023-04-26T10:24:02;6.80;;;2.50;;
77880;SDS011;67077;50.298;18.996;2023-04-26T10:26:45;5.50;;;2.20;;
77880;SDS011;67077;50.298;18.996;2023-04-26T10:32:11;8.30;;;1.90;;
77880;SDS011;67077;50.298;18.996;2023-04-26T10:35:13;5.70;;;2.00;;
77880;SDS011;67077;50.298;18.996;2023-04-26T10:40:46;6.10;;;2.00;;
77880;SDS011;67077;50.298;18.996;2023-04-26T10:43:27;9.10;;;2.50;;
77880;SDS011;67077;50.298;18.996;2023-04-26T10:51:09;7.50;;;1.80;;
77880;SDS011;67077;50.298;18.996;2023-04-26T11:01:44;6.70;;;2.30;;
77880;SDS011;67077;50.298;18.996;2023-04-26T11:07:37;11.10;;;2.70;;
77880;SDS011;67077;50.298;18.996;2023-04-26T11:10:09;5.60;;;2.10;;
77880;SDS011;67077;50.298;18.996;2023-04-26T11:12:59;7.70;;;2.60;;
77880;SDS011;67077;50.298;18.996;2023-04-26T11:15:29;4.00;;;1.50;;
77880;SDS011;67077;50.298;18.996;2023-04-26T11:18:02;6.70;;;1.90;;
77880;SDS011;67077;50.298;18.996;2023-04-26T11:20:32;4.00;;;1.70;;
77880;SDS011;67077;50.298;18.996;2023-04-26T11:23:01;3.50;;;1.50;;
77880;SDS011;67077;50.298;18.996;2023-04-26T11:25:30;3.80;;;1.40;;
77880;SDS011;67077;50.298;18.996;2023-04-26T11:27:59;7.80;;;2.00;;
77880;SDS011;67077;50.298;18.996;2023-04-26T11:30:29;6.20;;;2.10;;
77880;SDS011;67077;50.298;18.996;2023-04-26T11:32:59;5.20;;;1.80;;
77880;SDS011;67077;50.298;18.996;2023-04-26T11:35:33;6.60;;;1.70;;
77880;SDS011;67077;50.298;18.996;2023-04-26T11:38:05;7.10;;;2.00;;
77880;SDS011;67077;50.298;18.996;2023-04-26T11:40:33;5.10;;;1.60;;
77880;SDS011;67077;50.298;18.996;2023-04-26T11:43:04;4.00;;;1.80;;
77880;SDS011;67077;50.298;18.996;2023-04-26T11:45:33;6.10;;;2.30;;
77880;SDS011;67077;50.298;18.996;2023-04-26T11:48:13;4.30;;;1.60;;
77880;SDS011;67077;50.298;18.996;2023-04-26T11:50:43;6.80;;;3.10;;
77880;SDS011;67077;50.298;18.996;2023-04-26T11:53:13;13.30;;;3.50;;
77880;SDS011;67077;50.298;18.996;2023-04-26T11:55:43;10.10;;;3.20;;
77880;SDS011;67077;50.298;18.996;2023-04-26T11:58:12;5.00;;;1.80;;
77880;SDS011;67077;50.298;18.996;2023-04-26T12:00:55;4.40;;;2.00;;
77880;SDS011;67077;50.298;18.996;2023-04-26T12:03:28;6.70;;;1.70;;
77880;SDS011;67077;50.298;18.996;2023-04-26T12:05:58;8.70;;;2.00;;
77880;SDS011;67077;50.298;18.996;2023-04-26T12:08:26;4.10;;;1.50;;
77880;SDS011;67077;50.298;18.996;2023-04-26T12:10:57;6.00;;;1.60;;
77880;SDS011;67077;50.298;18.996;2023-04-26T12:13:30;0.90;;;0.80;;
77880;SDS011;67077;50.298;18.996;2023-04-26T12:16:06;2.70;;;1.20;;
77880;SDS011;67077;50.298;18.996;2023-04-26T12:18:35;4.30;;;1.00;;
77880;SDS011;67077;50.298;18.996;2023-04-26T12:21:04;7.20;;;2.00;;
77880;SDS011;67077;50.298;18.996;2023-04-26T12:23:37;5.30;;;1.60;;
77880;SDS011;67077;50.298;18.996;2023-04-26T12:26:08;4.90;;;1.60;;
77880;SDS011;67077;50.298;18.996;2023-04-26T12:28:38;4.20;;;1.60;;
77880;SDS011;67077;50.298;18.996;2023-04-26T12:31:08;8.10;;;1.90;;
77880;SDS011;67077;50.298;18.996;2023-04-26T12:33:37;4.70;;;1.40;;
77880;SDS011;67077;50.298;18.996;2023-04-26T12:36:06;4.80;;;1.70;;
77880;SDS011;67077;50.298;18.996;2023-04-26T12:38:36;5.10;;;1.60;;
77880;SDS011;67077;50.298;18.996;2023-04-26T12:41:06;7.10;;;1.90;;
77880;SDS011;67077;50.298;18.996;2023-04-26T12:43:34;6.70;;;1.80;;
77880;SDS011;67077;50.298;18.996;2023-04-26T12:46:03;5.40;;;1.80;;
77880;SDS011;67077;50.298;18.996;2023-04-26T12:48:32;6.40;;;2.00;;
77880;SDS011;67077;50.298;18.996;2023-04-26T12:51:01;4.70;;;1.70;;
77880;SDS011;67077;50.298;18.996;2023-04-26T12:53:30;4.30;;;1.90;;
77880;SDS011;67077;50.298;18.996;2023-04-26T12:55:58;5.00;;;1.60;;
77880;SDS011;67077;50.298;18.996;2023-04-26T12:58:27;5.20;;;2.00;;
77880;SDS011;67077;50.298;18.996;2023-04-26T13:00:58;4.40;;;2.10;;
77880;SDS011;67077;50.298;18.996;2023-04-26T13:03:28;4.20;;;1.60;;
77880;SDS011;67077;50.298;18.996;2023-04-26T13:05:55;5.70;;;2.30;;
77880;SDS011;67077;50.298;18.996;2023-04-26T13:08:23;5.10;;;1.90;;
77880;SDS011;67077;50.298;18.996;2023-04-26T13:10:51;7.20;;;2.40;;
77880;SDS011;67077;50.298;18.996;2023-04-26T13:13:19;5.00;;;1.90;;
77880;SDS011;67077;50.298;18.996;2023-04-26T13:15:48;3.40;;;1.50;;
77880;SDS011;67077;50.298;18.996;2023-04-26T13:18:17;3.60;;;1.40;;
77880;SDS011;67077;50.298;18.996;2023-04-26T13:20:45;5.80;;;1.50;;
77880;SDS011;67077;50.298;18.996;2023-04-26T13:23:15;8.00;;;2.10;;
77880;SDS011;67077;50.298;18.996;2023-04-26T13:25:43;8.60;;;2.10;;
77880;SDS011;67077;50.298;18.996;2023-04-26T13:28:12;4.00;;;2.00;;
77880;SDS011;67077;50.298;18.996;2023-04-26T13:30:40;5.60;;;2.40;;
77880;SDS011;67077;50.298;18.996;2023-04-26T13:33:09;9.30;;;2.30;;
77880;SDS011;67077;50.298;18.996;2023-04-26T13:35:37;4.40;;;1.90;;
77880;SDS011;67077;50.298;18.996;2023-04-26T13:38:05;5.90;;;2.20;;
77880;SDS011;67077;50.298;18.996;2023-04-26T13:40:33;4.60;;;2.10;;
77880;SDS011;67077;50.298;18.996;2023-04-26T13:43:04;6.90;;;1.40;;
77880;SDS011;67077;50.298;18.996;2023-04-26T13:45:32;6.00;;;1.80;;
77880;SDS011;67077;50.298;18.996;2023-04-26T13:48:00;4.80;;;2.10;;
77880;SDS011;67077;50.298;18.996;2023-04-26T13:50:28;10.20;;;2.40;;
77880;SDS011;67077;50.298;18.996;2023-04-26T13:52:56;6.30;;;1.60;;
77880;SDS011;67077;50.298;18.996;2023-04-26T13:55:24;10.10;;;2.20;;
77880;SDS011;67077;50.298;18.996;2023-04-26T13:57:52;11.20;;;1.80;;
77880;SDS011;67077;50.298;18.996;2023-04-26T14:00:21;13.30;;;6.60;;
77880;SDS011;67077;50.298;18.996;2023-04-26T14:02:49;102.70;;;46.70;;
77880;SDS011;67077;50.298;18.996;2023-04-26T14:05:17;9.30;;;4.30;;
77880;SDS011;67077;50.298;18.996;2023-04-26T14:07:45;3.70;;;2.10;;
77880;SDS011;67077;50.298;18.996;2023-04-26T14:10:13;3.70;;;1.90;;
77880;SDS011;67077;50.298;18.996;2023-04-26T14:12:42;3.90;;;2.00;;
77880;SDS011;67077;50.298;18.996;2023-04-26T14:15:10;5.20;;;1.50;;
77880;SDS011;67077;50.298;18.996;2023-04-26T14:17:39;4.30;;;1.30;;
77880;SDS011;67077;50.298;18.996;2023-04-26T14:20:08;4.90;;;1.30;;
77880;SDS011;67077;50.298;18.996;2023-04-26T14:22:37;2.40;;;1.20;;
77880;SDS011;67077;50.298;18.996;2023-04-26T14:25:05;5.30;;;2.40;;
77880;SDS011;67077;50.298;18.996;2023-04-26T14:27:33;7.80;;;3.10;;
77880;SDS011;67077;50.298;18.996;2023-04-26T14:30:02;7.50;;;2.20;;
77880;SDS011;67077;50.298;18.996;2023-04-26T14:32:30;7.70;;;3.10;;
77880;SDS011;67077;50.298;18.996;2023-04-26T14:34:58;4.60;;;2.20;;
77880;SDS011;67077;50.298;18.996;2023-04-26T14:37:26;7.40;;;2.20;;
77880;SDS011;67077;50.298;18.996;2023-04-26T14:39:54;5.00;;;2.00;;
77880;SDS011;67077;50.298;18.996;2023-04-26T14:42:22;6.10;;;1.80;;
77880;SDS011;67077;50.298;18.996;2023-04-26T14:44:50;5.20;;;2.00;;
77880;SDS011;67077;50.298;18.996;2023-04-26T14:47:22;3.80;;;1.80;;
77880;SDS011;67077;50.298;18.996;2023-04-26T14:49:49;5.70;;;2.10;;
77880;SDS011;67077;50.298;18.996;2023-04-26T14:52:18;8.30;;;2.40;;
77880;SDS011;67077;50.298;18.996;2023-04-26T14:54:47;4.20;;;1.50;;
77880;SDS011;67077;50.298;18.996;2023-04-26T14:57:15;4.60;;;1.60;;
77880;SDS011;67077;50.298;18.996;2023-04-26T14:59:43;6.30;;;1.70;;
77880;SDS011;67077;50.298;18.996;2023-04-26T15:02:11;2.60;;;1.40;;
77880;SDS011;67077;50.298;18.996;2023-04-26T15:04:40;3.80;;;1.30;;
77880;SDS011;67077;50.298;18.996;2023-04-26T15:07:14;4.70;;;1.50;;
77880;SDS011;67077;50.298;18.996;2023-04-26T15:09:43;3.50;;;1.60;;
77880;SDS011;67077;50.298;18.996;2023-04-26T15:12:11;3.30;;;1.40;;
77880;SDS011;67077;50.298;18.996;2023-04-26T15:14:39;3.90;;;1.70;;
77880;SDS011;67077;50.298;18.996;2023-04-26T15:17:06;4.00;;;1.60;;
77880;SDS011;67077;50.298;18.996;2023-04-26T15:19:34;4.80;;;1.40;;
77880;SDS011;67077;50.298;18.996;2023-04-26T15:22:03;3.10;;;1.30;;
77880;SDS011;67077;50.298;18.996;2023-04-26T15:24:34;3.70;;;1.80;;
77880;SDS011;67077;50.298;18.996;2023-04-26T15:27:03;5.10;;;2.00;;
77880;SDS011;67077;50.298;18.996;2023-04-26T15:29:32;4.80;;;2.30;;
77880;SDS011;67077;50.298;18.996;2023-04-26T15:32:01;7.20;;;1.80;;
77880;SDS011;67077;50.298;18.996;2023-04-26T15:34:30;4.70;;;1.40;;
77880;SDS011;67077;50.298;18.996;2023-04-26T15:37:07;4.60;;;1.90;;
77880;SDS011;67077;50.298;18.996;2023-04-26T15:39:36;4.70;;;1.50;;
77880;SDS011;67077;50.298;18.996;2023-04-26T15:42:04;3.20;;;1.50;;
77880;SDS011;67077;50.298;18.996;2023-04-26T15:44:33;6.70;;;1.50;;
77880;SDS011;67077;50.298;18.996;2023-04-26T15:47:02;5.50;;;1.60;;
77880;SDS011;67077;50.298;18.996;2023-04-26T15:49:30;3.40;;;1.70;;
77880;SDS011;67077;50.298;18.996;2023-04-26T15:51:58;4.20;;;1.70;;
77880;SDS011;67077;50.298;18.996;2023-04-26T15:54:26;4.20;;;1.60;;
77880;SDS011;67077;50.298;18.996;2023-04-26T15:56:54;4.10;;;1.80;;
77880;SDS011;67077;50.298;18.996;2023-04-26T15:59:22;5.60;;;1.70;;
77880;SDS011;67077;50.298;18.996;2023-04-26T16:01:51;4.80;;;1.80;;
77880;SDS011;67077;50.298;18.996;2023-04-26T16:04:18;4.70;;;1.60;;
77880;SDS011;67077;50.298;18.996;2023-04-26T16:06:48;6.00;;;1.70;;
77880;SDS011;67077;50.298;18.996;2023-04-26T16:09:16;6.30;;;1.80;;
77880;SDS011;67077;50.298;18.996;2023-04-26T16:11:46;5.60;;;2.00;;
77880;SDS011;67077;50.298;18.996;2023-04-26T16:14:14;3.90;;;2.00;;
77880;SDS011;67077;50.298;18.996;2023-04-26T16:16:43;5.90;;;1.80;;
77880;SDS011;67077;50.298;18.996;2023-04-26T16:19:12;7.10;;;2.20;;
77880;SDS011;67077;50.298;18.996;2023-04-26T16:21:40;4.80;;;1.80;;
77880;SDS011;67077;50.298;18.996;2023-04-26T16:24:09;5.90;;;1.90;;
77880;SDS011;67077;50.298;18.996;2023-04-26T16:26:38;5.40;;;1.80;;
77880;SDS011;67077;50.298;18.996;2023-04-26T16:29:06;6.50;;;2.00;;
77880;SDS011;67077;50.298;18.996;2023-04-26T16:31:34;3.60;;;1.60;;
77880;SDS011;67077;50.298;18.996;2023-04-26T16:34:03;6.60;;;2.10;;
77880;SDS011;67077;50.298;18.996;2023-04-26T16:36:31;4.10;;;1.80;;
77880;SDS011;67077;50.298;18.996;2023-04-26T16:39:01;4.40;;;2.00;;
77880;SDS011;67077;50.298;18.996;2023-04-26T16:41:29;6.00;;;2.50;;
77880;SDS011;67077;50.298;18.996;2023-04-26T16:43:57;6.70;;;2.20;;
77880;SDS011;67077;50.298;18.996;2023-04-26T16:46:26;9.20;;;2.20;;
77880;SDS011;67077;50.298;18.996;2023-04-26T16:48:54;5.00;;;1.60;;
77880;SDS011;67077;50.298;18.996;2023-04-26T16:51:23;4.00;;;1.40;;
77880;SDS011;67077;50.298;18.996;2023-04-26T16:54:02;4.30;;;1.50;;
77880;SDS011;67077;50.298;18.996;2023-04-26T16:56:31;6.50;;;1.60;;
77880;SDS011;67077;50.298;18.996;2023-04-26T16:59:00;6.20;;;1.80;;
77880;SDS011;67077;50.298;18.996;2023-04-26T17:01:42;5.40;;;2.10;;
77880;SDS011;67077;50.298;18.996;2023-04-26T17:04:11;5.80;;;2.50;;
77880;SDS011;67077;50.298;18.996;2023-04-26T17:06:40;10.40;;;3.20;;
77880;SDS011;67077;50.298;18.996;2023-04-26T17:12:00;11.90;;;2.90;;
77880;SDS011;67077;50.298;18.996;2023-04-26T17:14:30;9.90;;;3.40;;
77880;SDS011;67077;50.298;18.996;2023-04-26T17:16:59;9.30;;;3.50;;
77880;SDS011;67077;50.298;18.996;2023-04-26T17:19:27;14.40;;;7.30;;
77880;SDS011;67077;50.298;18.996;2023-04-26T17:21:57;14.60;;;6.60;;
77880;SDS011;67077;50.298;18.996;2023-04-26T17:24:25;14.10;;;5.70;;
77880;SDS011;67077;50.298;18.996;2023-04-26T17:26:54;11.80;;;5.20;;
77880;SDS011;67077;50.298;18.996;2023-04-26T17:29:23;5.30;;;2.80;;
77880;SDS011;67077;50.298;18.996;2023-04-26T17:32:11;7.10;;;2.80;;
77880;SDS011;67077;50.298;18.996;2023-04-26T17:34:41;6.90;;;2.80;;
77880;SDS011;67077;50.298;18.996;2023-04-26T17:37:10;6.20;;;2.50;;
77880;SDS011;67077;50.298;18.996;2023-04-26T17:39:38;8.70;;;3.30;;
77880;SDS011;67077;50.298;18.996;2023-04-26T17:42:06;10.10;;;3.50;;
77880;SDS011;67077;50.298;18.996;2023-04-26T17:44:36;8.30;;;2.80;;
77880;SDS011;67077;50.298;18.996;2023-04-26T17:47:04;9.80;;;3.40;;
77880;SDS011;67077;50.298;18.996;2023-04-26T17:49:33;5.90;;;2.90;;
77880;SDS011;67077;50.298;18.996;2023-04-26T17:52:01;7.40;;;3.00;;
77880;SDS011;67077;50.298;18.996;2023-04-26T17:54:29;7.50;;;3.00;;
77880;SDS011;67077;50.298;18.996;2023-04-26T17:56:57;7.60;;;3.20;;
77880;SDS011;67077;50.298;18.996;2023-04-26T17:59:26;9.00;;;3.30;;
77880;SDS011;67077;50.298;18.996;2023-04-26T18:01:54;7.50;;;3.10;;
77880;SDS011;67077;50.298;18.996;2023-04-26T18:04:22;8.90;;;3.90;;
77880;SDS011;67077;50.298;18.996;2023-04-26T18:06:51;12.80;;;4.40;;
77880;SDS011;67077;50.298;18.996;2023-04-26T18:09:41;7.20;;;3.30;;
77880;SDS011;67077;50.298;18.996;2023-04-26T18:12:10;10.40;;;4.10;;
77880;SDS011;67077;50.298;18.996;2023-04-26T18:14:38;8.60;;;3.10;;
77880;SDS011;67077;50.298;18.996;2023-04-26T18:17:11;10.30;;;2.90;;
77880;SDS011;67077;50.298;18.996;2023-04-26T18:19:40;7.80;;;3.20;;
77880;SDS011;67077;50.298;18.996;2023-04-26T18:22:08;9.40;;;3.30;;
77880;SDS011;67077;50.298;18.996;2023-04-26T18:24:37;7.10;;;2.60;;
77880;SDS011;67077;50.298;18.996;2023-04-26T18:27:05;8.40;;;2.70;;
77880;SDS011;67077;50.298;18.996;2023-04-26T18:29:33;6.90;;;2.60;;
77880;SDS011;67077;50.298;18.996;2023-04-26T18:32:02;8.90;;;3.00;;
77880;SDS011;67077;50.298;18.996;2023-04-26T18:34:30;6.10;;;2.40;;
77880;SDS011;67077;50.298;18.996;2023-04-26T18:36:58;8.50;;;2.40;;
77880;SDS011;67077;50.298;18.996;2023-04-26T18:39:26;10.90;;;2.40;;
77880;SDS011;67077;50.298;18.996;2023-04-26T18:41:54;6.80;;;2.40;;
77880;SDS011;67077;50.298;18.996;2023-04-26T18:44:22;6.20;;;2.00;;
77880;SDS011;67077;50.298;18.996;2023-04-26T18:46:51;7.70;;;2.70;;
77880;SDS011;67077;50.298;18.996;2023-04-26T18:49:23;6.70;;;2.70;;
77880;SDS011;67077;50.298;18.996;2023-04-26T18:51:53;10.80;;;2.90;;
77880;SDS011;67077;50.298;18.996;2023-04-26T18:54:24;5.90;;;2.90;;
77880;SDS011;67077;50.298;18.996;2023-04-26T18:56:53;6.20;;;3.30;;
77880;SDS011;67077;50.298;18.996;2023-04-26T18:59:22;7.00;;;3.60;;
77880;SDS011;67077;50.298;18.996;2023-04-26T19:01:51;11.50;;;4.50;;
77880;SDS011;67077;50.298;18.996;2023-04-26T19:04:20;11.20;;;4.30;;
77880;SDS011;67077;50.298;18.996;2023-04-26T19:06:48;13.00;;;4.30;;
77880;SDS011;67077;50.298;18.996;2023-04-26T19:09:16;9.80;;;4.30;;
77880;SDS011;67077;50.298;18.996;2023-04-26T19:11:45;11.40;;;5.40;;
77880;SDS011;67077;50.298;18.996;2023-04-26T19:14:13;14.30;;;5.80;;
77880;SDS011;67077;50.298;18.996;2023-04-26T19:16:41;12.20;;;4.70;;
77880;SDS011;67077;50.298;18.996;2023-04-26T19:19:10;14.00;;;4.80;;
77880;SDS011;67077;50.298;18.996;2023-04-26T19:21:40;14.40;;;5.90;;
77880;SDS011;67077;50.298;18.996;2023-04-26T19:24:09;16.40;;;5.50;;
77880;SDS011;67077;50.298;18.996;2023-04-26T19:26:37;14.30;;;5.60;;
77880;SDS011;67077;50.298;18.996;2023-04-26T19:29:06;13.40;;;5.40;;
77880;SDS011;67077;50.298;18.996;2023-04-26T19:31:40;15.70;;;5.80;;
77880;SDS011;67077;50.298;18.996;2023-04-26T19:34:11;15.90;;;6.60;;
77880;SDS011;67077;50.298;18.996;2023-04-26T19:36:40;15.80;;;6.80;;
77880;SDS011;67077;50.298;18.996;2023-04-26T19:39:09;18.90;;;7.00;;
77880;SDS011;67077;50.298;18.996;2023-04-26T19:41:38;15.60;;;7.30;;
77880;SDS011;67077;50.298;18.996;2023-04-26T19:44:08;17.20;;;7.00;;
77880;SDS011;67077;50.298;18.996;2023-04-26T19:46:37;22.40;;;9.30;;
77880;SDS011;67077;50.298;18.996;2023-04-26T19:49:09;23.80;;;10.20;;
77880;SDS011;67077;50.298;18.996;2023-04-26T19:51:38;21.70;;;9.70;;
77880;SDS011;67077;50.298;18.996;2023-04-26T19:54:07;22.30;;;8.30;;
77880;SDS011;67077;50.298;18.996;2023-04-26T19:56:37;16.90;;;7.60;;
77880;SDS011;67077;50.298;18.996;2023-04-26T19:59:08;22.90;;;10.20;;
77880;SDS011;67077;50.298;18.996;2023-04-26T20:01:36;19.40;;;7.90;;
77880;SDS011;67077;50.298;18.996;2023-04-26T20:04:04;17.80;;;7.30;;
77880;SDS011;67077;50.298;18.996;2023-04-26T20:06:35;21.80;;;9.00;;
77880;SDS011;67077;50.298;18.996;2023-04-26T20:09:04;18.40;;;8.20;;
77880;SDS011;67077;50.298;18.996;2023-04-26T20:11:35;21.20;;;9.00;;
77880;SDS011;67077;50.298;18.996;2023-04-26T20:14:03;20.50;;;7.70;;
77880;SDS011;67077;50.298;18.996;2023-04-26T20:16:33;16.70;;;7.50;;
77880;SDS011;67077;50.298;18.996;2023-04-26T20:19:04;20.20;;;8.50;;
77880;SDS011;67077;50.298;18.996;2023-04-26T20:21:33;17.10;;;7.10;;
77880;SDS011;67077;50.298;18.996;2023-04-26T20:24:01;19.40;;;8.00;;
77880;SDS011;67077;50.298;18.996;2023-04-26T20:26:33;17.90;;;7.40;;
77880;SDS011;67077;50.298;18.996;2023-04-26T20:29:02;19.80;;;7.60;;
77880;SDS011;67077;50.298;18.996;2023-04-26T20:31:31;17.50;;;8.10;;
77880;SDS011;67077;50.298;18.996;2023-04-26T20:34:02;24.00;;;8.20;;
77880;SDS011;67077;50.298;18.996;2023-04-26T20:36:31;18.20;;;7.60;;
77880;SDS011;67077;50.298;18.996;2023-04-26T20:39:01;18.10;;;8.30;;
77880;SDS011;67077;50.298;18.996;2023-04-26T20:41:30;21.60;;;8.20;;
77880;SDS011;67077;50.298;18.996;2023-04-26T20:44:01;16.60;;;7.60;;
77880;SDS011;67077;50.298;18.996;2023-04-26T20:46:31;24.10;;;8.40;;
77880;SDS011;67077;50.298;18.996;2023-04-26T20:49:02;18.60;;;7.60;;
77880;SDS011;67077;50.298;18.996;2023-04-26T20:51:31;24.00;;;10.40;;
77880;SDS011;67077;50.298;18.996;2023-04-26T20:54:01;23.40;;;9.50;;
77880;SDS011;67077;50.298;18.996;2023-04-26T20:56:30;24.90;;;10.50;;
77880;SDS011;67077;50.298;18.996;2023-04-26T20:59:00;21.70;;;9.70;;
77880;SDS011;67077;50.298;18.996;2023-04-26T21:01:30;24.50;;;10.90;;
77880;SDS011;67077;50.298;18.996;2023-04-26T21:04:01;26.20;;;9.80;;
77880;SDS011;67077;50.298;18.996;2023-04-26T21:06:29;24.60;;;9.40;;
77880;SDS011;67077;50.298;18.996;2023-04-26T21:08:57;20.10;;;10.20;;
77880;SDS011;67077;50.298;18.996;2023-04-26T21:11:26;23.70;;;11.00;;
77880;SDS011;67077;50.298;18.996;2023-04-26T21:13:54;27.30;;;10.40;;
77880;SDS011;67077;50.298;18.996;2023-04-26T21:16:22;22.30;;;10.80;;
77880;SDS011;67077;50.298;18.996;2023-04-26T21:18:52;24.30;;;10.40;;
77880;SDS011;67077;50.298;18.996;2023-04-26T21:21:20;26.10;;;10.50;;
77880;SDS011;67077;50.298;18.996;2023-04-26T21:23:49;26.30;;;11.30;;
77880;SDS011;67077;50.298;18.996;2023-04-26T21:26:17;25.80;;;11.30;;
77880;SDS011;67077;50.298;18.996;2023-04-26T21:28:45;27.20;;;11.20;;
77880;SDS011;67077;50.298;18.996;2023-04-26T21:31:13;25.90;;;9.90;;
77880;SDS011;67077;50.298;18.996;2023-04-26T21:33:41;27.40;;;10.20;;
77880;SDS011;67077;50.298;18.996;2023-04-26T21:36:09;25.40;;;10.70;;
77880;SDS011;67077;50.298;18.996;2023-04-26T21:38:37;24.00;;;9.70;;
77880;SDS011;67077;50.298;18.996;2023-04-26T21:41:07;27.50;;;10.20;;
77880;SDS011;67077;50.298;18.996;2023-04-26T21:43:34;19.90;;;8.60;;
77880;SDS011;67077;50.298;18.996;2023-04-26T21:46:02;17.80;;;8.70;;
77880;SDS011;67077;50.298;18.996;2023-04-26T21:48:30;18.70;;;7.70;;
77880;SDS011;67077;50.298;18.996;2023-04-26T21:50:58;23.30;;;8.90;;
77880;SDS011;67077;50.298;18.996;2023-04-26T21:53:26;22.10;;;8.80;;
77880;SDS011;67077;50.298;18.996;2023-04-26T21:55:54;28.50;;;10.80;;
77880;SDS011;67077;50.298;18.996;2023-04-26T21:58:22;28.80;;;11.90;;
77880;SDS011;67077;50.298;18.996;2023-04-26T22:00:50;26.10;;;12.30;;
77880;SDS011;67077;50.298;18.996;2023-04-26T22:03:18;24.60;;;11.90;;
77880;SDS011;67077;50.298;18.996;2023-04-26T22:05:46;23.50;;;11.10;;
77880;SDS011;67077;50.298;18.996;2023-04-26T22:08:14;24.30;;;9.60;;
77880;SDS011;67077;50.298;18.996;2023-04-26T22:10:42;30.60;;;12.90;;
77880;SDS011;67077;50.298;18.996;2023-04-26T22:13:10;32.70;;;13.50;;
77880;SDS011;67077;50.298;18.996;2023-04-26T22:15:38;36.20;;;14.80;;
77880;SDS011;67077;50.298;18.996;2023-04-26T22:18:06;29.70;;;13.80;;
77880;SDS011;67077;50.298;18.996;2023-04-26T22:20:34;32.60;;;14.30;;
77880;SDS011;67077;50.298;18.996;2023-04-26T22:23:02;39.70;;;14.50;;
77880;SDS011;67077;50.298;18.996;2023-04-26T22:25:30;40.30;;;15.40;;
77880;SDS011;67077;50.298;18.996;2023-04-26T22:27:58;35.10;;;13.70;;
77880;SDS011;67077;50.298;18.996;2023-04-26T22:30:25;35.50;;;14.10;;
77880;SDS011;67077;50.298;18.996;2023-04-26T22:32:54;41.30;;;16.40;;
77880;SDS011;67077;50.298;18.996;2023-04-26T22:35:25;39.40;;;15.20;;
77880;SDS011;67077;50.298;18.996;2023-04-26T22:37:54;38.30;;;13.80;;
77880;SDS011;67077;50.298;18.996;2023-04-26T22:40:22;30.90;;;13.30;;
77880;SDS011;67077;50.298;18.996;2023-04-26T22:42:50;32.10;;;13.20;;
77880;SDS011;67077;50.298;18.996;2023-04-26T22:45:18;30.90;;;13.40;;
77880;SDS011;67077;50.298;18.996;2023-04-26T22:47:46;32.00;;;12.60;;
77880;SDS011;67077;50.298;18.996;2023-04-26T22:50:14;31.20;;;12.40;;
77880;SDS011;67077;50.298;18.996;2023-04-26T22:52:42;34.70;;;12.10;;
77880;SDS011;67077;50.298;18.996;2023-04-26T22:55:10;33.40;;;13.30;;
77880;SDS011;67077;50.298;18.996;2023-04-26T22:57:38;36.60;;;13.70;;
77880;SDS011;67077;50.298;18.996;2023-04-26T23:00:07;34.10;;;13.90;;
77880;SDS011;67077;50.298;18.996;2023-04-26T23:05:07;30.30;;;12.60;;
77880;SDS011;67077;50.298;18.996;2023-04-26T23:07:39;31.80;;;12.20;;
77880;SDS011;67077;50.298;18.996;2023-04-26T23:10:07;27.30;;;11.60;;
77880;SDS011;67077;50.298;18.996;2023-04-26T23:12:36;24.90;;;10.50;;
77880;SDS011;67077;50.298;18.996;2023-04-26T23:15:04;26.80;;;10.30;;
77880;SDS011;67077;50.298;18.996;2023-04-26T23:17:32;26.30;;;11.30;;
77880;SDS011;67077;50.298;18.996;2023-04-26T23:20:01;29.60;;;11.00;;
77880;SDS011;67077;50.298;18.996;2023-04-26T23:22:39;29.00;;;10.70;;
77880;SDS011;67077;50.298;18.996;2023-04-26T23:25:08;24.10;;;9.90;;
77880;SDS011;67077;50.298;18.996;2023-04-26T23:27:37;31.20;;;10.30;;
77880;SDS011;67077;50.298;18.996;2023-04-26T23:30:06;28.90;;;10.80;;
77880;SDS011;67077;50.298;18.996;2023-04-26T23:32:34;26.10;;;10.20;;
77880;SDS011;67077;50.298;18.996;2023-04-26T23:35:02;21.70;;;10.10;;
77880;SDS011;67077;50.298;18.996;2023-04-26T23:37:35;24.40;;;10.00;;
77880;SDS011;67077;50.298;18.996;2023-04-26T23:40:03;26.20;;;10.20;;